Time;durP1;ratioP1;P1;durP2;ratioP2;P2;SDS_P1;SDS_P2;PMS_P1;PMS_P2;Temp;Humidity;BMP_temperature;BMP_pressure;BME280_temperature;BME280_humidity;BME280_pressure;Samples;Min_cycle;Max_cycle;Signal;HPM_P1;HPM_P2
2022/08/28 00:02:21;;;;;;;11.45;1.98;;;17.00;99.90;;;;;;5065253;28;20040;-70
2022/08/28 00:04:47;;;;;;;10.05;1.70;;;17.00;99.90;;;;;;5093648;28;20040;-69
2022/08/28 00:07:13;;;;;;;7.90;1.40;;;17.00;99.90;;;;;;5094031;28;20039;-69
2022/08/28 00:09:38;;;;;;;10.18;1.45;;;17.00;99.90;;;;;;5094104;28;20066;-69
2022/08/28 00:12:05;;;;;;;8.57;1.20;;;16.90;99.90;;;;;;5077257;28;20665;-69
2022/08/28 00:14:31;;;;;;;10.05;1.55;;;16.90;99.90;;;;;;5075677;28;20073;-69
2022/08/28 00:16:56;;;;;;;11.50;1.45;;;16.90;99.90;;;;;;5067133;28;20177;-69
2022/08/28 00:19:23;;;;;;;11.52;1.70;;;16.90;99.90;;;;;;5077277;28;20035;-70
2022/08/28 00:21:49;;;;;;;13.77;2.33;;;16.90;99.90;;;;;;5078467;28;20115;-70
2022/08/28 00:24:15;;;;;;;10.10;1.50;;;16.90;99.90;;;;;;5094590;28;20131;-70
2022/08/28 00:29:26;;;;;;;11.45;1.50;;;17.00;99.90;;;;;;5084483;28;20624;-70
2022/08/28 00:31:52;;;;;;;6.50;1.60;;;17.00;99.90;;;;;;5095371;28;20055;-69
2022/08/28 00:34:17;;;;;;;11.73;1.98;;;17.00;99.90;;;;;;5092770;28;20050;-69
2022/08/28 00:36:43;;;;;;;9.63;1.55;;;17.00;99.90;;;;;;5060173;28;20521;-69
2022/08/28 00:39:09;;;;;;;10.80;2.67;;;16.90;99.90;;;;;;5077060;28;20095;-69
2022/08/28 00:41:37;;;;;;;7.60;1.50;;;16.90;99.90;;;;;;5058890;28;20051;-70
2022/08/28 00:44:12;;;;;;;10.35;1.33;;;16.80;99.90;;;;;;5087750;28;20551;-69
2022/08/28 00:46:40;;;;;;;9.07;1.60;;;16.80;99.90;;;;;;5096869;28;20528;-70
2022/08/28 00:49:07;;;;;;;10.35;1.40;;;16.70;99.90;;;;;;5094082;28;20112;-69
2022/08/28 00:54:18;;;;;;;7.72;1.38;;;16.80;99.90;;;;;;5093749;28;20429;-70
2022/08/28 00:56:46;;;;;;;7.60;1.02;;;16.70;99.90;;;;;;5093339;28;20039;-69
2022/08/28 00:59:15;;;;;;;9.10;1.50;;;16.60;99.90;;;;;;5075396;28;20115;-69
2022/08/28 01:01:43;;;;;;;8.10;1.10;;;16.70;99.90;;;;;;5093887;28;20054;-70
2022/08/28 01:04:15;;;;;;;12.02;1.40;;;16.60;99.90;;;;;;5093886;28;20036;-70
2022/08/28 01:06:43;;;;;;;12.73;1.38;;;16.60;99.90;;;;;;5094519;28;20066;-70
2022/08/28 01:09:10;;;;;;;8.25;1.30;;;16.60;99.90;;;;;;5076185;28;20044;-70
2022/08/28 01:11:41;;;;;;;12.27;1.45;;;16.70;99.90;;;;;;5093466;28;20545;-70
2022/08/28 01:14:07;;;;;;;9.80;1.25;;;16.80;99.90;;;;;;5081935;28;20043;-69
2022/08/28 01:16:34;;;;;;;11.00;1.60;;;16.80;99.90;;;;;;5092630;28;20043;-69
2022/08/28 01:19:04;;;;;;;10.38;1.40;;;16.80;99.90;;;;;;5094193;28;20040;-70
2022/08/28 01:21:53;;;;;;;5.90;1.00;;;16.70;99.90;;;;;;5094085;28;20046;-69
2022/08/28 01:24:19;;;;;;;8.90;1.08;;;16.70;99.90;;;;;;5100144;28;20075;-69
2022/08/28 01:26:46;;;;;;;9.13;1.20;;;16.60;99.90;;;;;;5094859;28;20126;-69
2022/08/28 01:29:13;;;;;;;11.65;1.35;;;16.70;99.90;;;;;;5093562;28;20123;-70
2022/08/28 01:31:39;;;;;;;8.82;1.23;;;16.60;99.90;;;;;;5077362;28;20381;-70
2022/08/28 01:34:08;;;;;;;10.68;1.17;;;16.60;99.90;;;;;;5096554;28;20118;-70
2022/08/28 01:36:34;;;;;;;8.63;1.45;;;16.60;99.90;;;;;;5096826;28;20075;-70
2022/08/28 01:39:13;;;;;;;8.98;1.10;;;16.70;99.90;;;;;;5079953;28;20566;-70
2022/08/28 01:41:46;;;;;;;7.38;1.20;;;16.70;99.90;;;;;;5097862;28;20139;-69
2022/08/28 01:44:14;;;;;;;7.40;1.20;;;16.70;99.90;;;;;;5097713;28;20043;-70
2022/08/28 01:46:41;;;;;;;8.57;1.40;;;16.60;99.90;;;;;;5097567;28;20501;-68
2022/08/28 01:49:08;;;;;;;8.02;1.27;;;16.60;99.90;;;;;;5095712;28;20032;-68
2022/08/28 01:51:35;;;;;;;7.85;1.13;;;16.70;99.90;;;;;;5068652;28;20513;-68
2022/08/28 01:54:01;;;;;;;8.98;1.33;;;16.70;99.90;;;;;;5079379;28;20549;-68
2022/08/28 01:56:27;;;;;;;6.20;1.15;;;16.70;99.90;;;;;;5096525;28;20042;-68
2022/08/28 01:58:52;;;;;;;10.07;1.42;;;16.60;99.90;;;;;;5096871;28;20047;-68
2022/08/28 02:01:20;;;;;;;10.77;1.25;;;16.60;99.90;;;;;;5079644;28;20046;-68
2022/08/28 02:03:47;;;;;;;8.05;1.40;;;16.60;99.90;;;;;;5096626;28;20287;-69
2022/08/28 02:06:14;;;;;;;7.82;1.20;;;16.50;99.90;;;;;;5097607;28;20362;-68
2022/08/28 02:08:40;;;;;;;8.57;1.33;;;16.60;99.90;;;;;;5078352;28;20421;-67
2022/08/28 02:11:07;;;;;;;7.43;1.40;;;16.60;99.90;;;;;;5096570;28;20071;-68
2022/08/28 02:13:35;;;;;;;9.05;1.23;;;16.50;99.90;;;;;;5080693;28;20728;-68
2022/08/28 02:16:02;;;;;;;9.60;1.13;;;16.60;99.90;;;;;;5080297;28;20063;-68
2022/08/28 02:18:28;;;;;;;9.93;1.27;;;16.50;99.90;;;;;;5077942;28;20043;-68
2022/08/28 02:20:54;;;;;;;8.30;1.05;;;16.50;99.90;;;;;;5096751;28;20460;-68
2022/08/28 02:23:20;;;;;;;10.43;1.10;;;16.40;99.90;;;;;;5080254;28;20039;-68
2022/08/28 02:25:46;;;;;;;7.15;1.30;;;16.40;99.90;;;;;;5097053;28;20266;-68
2022/08/28 02:28:12;;;;;;;9.95;1.38;;;16.40;99.90;;;;;;5078242;28;20059;-67
2022/08/28 02:30:37;;;;;;;8.45;1.40;;;16.40;99.90;;;;;;5086302;28;20096;-68
2022/08/28 02:33:03;;;;;;;10.98;1.60;;;16.40;99.90;;;;;;5078833;28;20035;-68
2022/08/28 02:35:30;;;;;;;7.93;1.52;;;16.30;99.90;;;;;;5095870;28;20046;-68
2022/08/28 02:37:56;;;;;;;9.73;1.30;;;16.20;99.90;;;;;;5095700;28;20242;-68
2022/08/28 02:40:23;;;;;;;8.80;1.38;;;16.10;99.90;;;;;;5077466;28;21318;-68
2022/08/28 02:42:49;;;;;;;5.95;1.33;;;16.10;99.90;;;;;;5080082;28;20097;-68
2022/08/28 02:45:15;;;;;;;6.72;0.90;;;16.10;99.90;;;;;;5097419;28;20063;-68
2022/08/28 02:47:43;;;;;;;8.80;1.20;;;16.10;99.90;;;;;;5096690;28;20658;-68
2022/08/28 02:50:11;;;;;;;7.30;1.25;;;16.20;99.90;;;;;;5096177;28;20074;-67
2022/08/28 02:52:38;;;;;;;10.23;0.90;;;16.20;99.90;;;;;;5100130;27;20413;-68
2022/08/28 02:55:05;;;;;;;9.82;1.00;;;16.20;99.90;;;;;;5096010;28;20193;-68
2022/08/28 02:57:31;;;;;;;7.07;1.10;;;16.20;99.90;;;;;;5096341;28;20450;-68
2022/08/28 03:00:00;;;;;;;7.63;0.98;;;16.20;99.90;;;;;;5094865;28;20293;-68
2022/08/28 03:02:26;;;;;;;10.40;1.20;;;16.20;99.90;;;;;;5078745;28;20131;-68
2022/08/28 03:04:52;;;;;;;6.55;0.77;;;16.20;99.90;;;;;;5078260;28;20337;-68
2022/08/28 03:07:18;;;;;;;9.43;1.10;;;16.20;99.90;;;;;;5077941;28;20053;-68
2022/08/28 03:09:44;;;;;;;8.98;1.10;;;16.10;99.90;;;;;;5094662;28;20059;-68
2022/08/28 03:12:12;;;;;;;6.78;1.00;;;16.00;99.90;;;;;;5087966;28;20496;-68
2022/08/28 03:14:38;;;;;;;9.35;1.23;;;16.10;99.90;;;;;;5092512;28;20071;-69
2022/08/28 03:17:06;;;;;;;9.68;1.05;;;16.10;99.90;;;;;;5088530;28;20289;-67
2022/08/28 03:19:33;;;;;;;9.63;1.10;;;16.20;99.90;;;;;;5088160;28;20501;-68
2022/08/28 03:21:58;;;;;;;7.97;1.15;;;16.20;99.90;;;;;;5089757;28;20321;-69
2022/08/28 03:24:24;;;;;;;8.75;1.08;;;16.20;99.90;;;;;;5069996;28;20673;-69
2022/08/28 03:26:50;;;;;;;5.88;0.70;;;16.20;99.90;;;;;;5088570;28;20044;-69
2022/08/28 03:29:16;;;;;;;7.78;1.15;;;16.20;99.90;;;;;;5087778;28;20043;-69
2022/08/28 03:31:41;;;;;;;5.38;1.10;;;16.20;99.90;;;;;;5088635;28;20334;-69
2022/08/28 03:34:08;;;;;;;7.30;1.08;;;16.20;99.90;;;;;;5054503;28;20096;-69
2022/08/28 03:36:34;;;;;;;7.13;1.40;;;16.20;99.90;;;;;;5071416;28;20043;-69
2022/08/28 03:39:03;;;;;;;7.57;1.27;;;16.20;99.90;;;;;;5088426;28;20040;-70
2022/08/28 03:41:30;;;;;;;7.13;1.27;;;16.20;99.90;;;;;;5071303;28;20039;-69
2022/08/28 03:43:58;;;;;;;10.05;1.27;;;16.20;99.90;;;;;;5088215;28;20067;-68
2022/08/28 03:46:24;;;;;;;6.82;1.17;;;16.10;99.90;;;;;;5088058;28;20031;-69
2022/08/28 03:48:51;;;;;;;7.22;1.08;;;16.10;99.90;;;;;;5087807;28;20036;-70
2022/08/28 03:51:20;;;;;;;8.82;1.17;;;16.10;99.90;;;;;;5088325;28;20319;-69
2022/08/28 03:53:47;;;;;;;9.75;1.30;;;16.10;99.90;;;;;;5071482;28;20388;-70
2022/08/28 03:56:20;;;;;;;8.25;1.27;;;16.30;99.90;;;;;;5087937;28;20067;-69
2022/08/28 03:58:51;;;;;;;7.93;1.05;;;16.40;99.90;;;;;;5088525;28;20044;-70
2022/08/28 04:01:18;;;;;;;6.07;0.90;;;16.40;99.90;;;;;;5087762;28;20047;-69
2022/08/28 04:03:44;;;;;;;8.90;1.00;;;16.30;99.90;;;;;;5071270;28;20360;-69
2022/08/28 04:06:10;;;;;;;8.70;1.05;;;16.30;99.90;;;;;;5070628;28;20438;-69
2022/08/28 04:08:37;;;;;;;7.60;1.58;;;16.20;99.90;;;;;;5088190;28;20484;-69
2022/08/28 04:11:03;;;;;;;6.90;1.00;;;16.10;99.90;;;;;;5088416;28;20334;-67
2022/08/28 04:13:29;;;;;;;7.68;0.90;;;16.10;99.90;;;;;;5070948;28;20324;-70
2022/08/28 04:15:58;;;;;;;6.45;1.23;;;16.10;99.90;;;;;;5087718;28;20048;-67
2022/08/28 04:18:24;;;;;;;10.63;1.20;;;16.00;99.90;;;;;;5087805;28;20271;-68
2022/08/28 04:21:02;;;;;;;9.15;1.00;;;16.00;99.90;;;;;;5087209;28;20039;-69
2022/08/28 04:23:28;;;;;;;7.35;1.20;;;15.90;99.90;;;;;;5088247;28;20119;-68
2022/08/28 04:25:54;;;;;;;7.07;0.90;;;15.90;99.90;;;;;;5087439;28;20040;-68
2022/08/28 04:28:21;;;;;;;7.40;0.90;;;15.80;99.90;;;;;;5069845;28;20039;-68
2022/08/28 04:30:55;;;;;;;10.40;0.80;;;15.80;99.90;;;;;;5087534;28;20085;-69
2022/08/28 04:33:23;;;;;;;9.52;1.10;;;15.80;99.90;;;;;;5086554;28;20043;-69
2022/08/28 04:35:49;;;;;;;9.98;1.30;;;15.80;99.90;;;;;;5087121;28;20507;-69
2022/08/28 04:38:15;;;;;;;9.10;1.20;;;15.80;99.90;;;;;;5087448;28;20039;-68
2022/08/28 04:40:42;;;;;;;6.75;1.20;;;15.80;99.90;;;;;;5087539;28;20515;-68
2022/08/28 04:43:08;;;;;;;9.70;1.42;;;15.80;99.90;;;;;;5092002;28;20043;-68
2022/08/28 04:45:39;;;;;;;8.23;0.90;;;15.80;99.90;;;;;;5087965;28;20501;-68
2022/08/28 04:48:05;;;;;;;8.68;1.05;;;15.90;99.90;;;;;;5079284;28;20719;-69
2022/08/28 04:50:32;;;;;;;7.88;0.90;;;16.00;99.90;;;;;;5087051;28;20310;-69
2022/08/28 04:52:57;;;;;;;8.43;0.70;;;16.00;99.90;;;;;;5087309;28;20475;-69
2022/08/28 04:55:23;;;;;;;8.05;0.75;;;16.00;99.90;;;;;;5087976;28;20312;-68
2022/08/28 04:57:49;;;;;;;10.35;1.00;;;16.00;99.90;;;;;;5070587;28;20071;-69
2022/08/28 05:00:15;;;;;;;10.48;1.23;;;15.90;99.90;;;;;;5086559;28;20108;-69
2022/08/28 05:02:41;;;;;;;8.38;1.08;;;15.90;99.90;;;;;;5069551;28;20047;-69
2022/08/28 05:05:07;;;;;;;7.25;1.08;;;15.90;99.90;;;;;;5085518;28;20035;-68
2022/08/28 05:07:33;;;;;;;7.55;0.85;;;15.90;99.90;;;;;;5087151;28;20120;-70
2022/08/28 05:09:58;;;;;;;4.50;0.90;;;16.00;99.90;;;;;;5108543;27;20661;-70
2022/08/28 05:12:24;;;;;;;5.70;0.77;;;15.90;99.90;;;;;;5098720;27;20054;-68
2022/08/28 05:14:50;;;;;;;8.52;1.30;;;15.90;99.90;;;;;;5094074;27;20532;-68
2022/08/28 05:17:15;;;;;;;9.20;0.93;;;15.90;99.90;;;;;;5094894;27;20467;-69
2022/08/28 05:19:42;;;;;;;11.88;0.98;;;15.80;99.90;;;;;;5094988;27;20479;-69
2022/08/28 05:22:08;;;;;;;8.70;1.00;;;15.80;99.90;;;;;;5095797;27;20082;-69
2022/08/28 05:24:36;;;;;;;8.27;0.90;;;15.80;99.90;;;;;;5112363;27;20039;-69
2022/08/28 05:27:02;;;;;;;8.80;0.63;;;15.80;99.90;;;;;;5077753;27;20035;-67
2022/08/28 05:29:28;;;;;;;6.32;0.90;;;15.80;99.90;;;;;;5094172;27;20053;-69
2022/08/28 05:31:54;;;;;;;6.43;0.90;;;16.00;99.90;;;;;;5093871;27;20707;-68
2022/08/28 05:34:20;;;;;;;9.73;0.75;;;16.20;99.90;;;;;;5065719;27;20253;-69
2022/08/28 05:36:46;;;;;;;6.70;1.00;;;16.50;99.90;;;;;;5058140;27;20051;-68
2022/08/28 05:39:12;;;;;;;5.97;1.20;;;16.60;99.90;;;;;;5077539;27;20035;-68
2022/08/28 05:41:42;;;;;;;7.47;1.00;;;16.80;99.90;;;;;;5094316;27;20043;-69
2022/08/28 05:44:10;;;;;;;7.00;0.90;;;16.90;99.90;;;;;;5094920;27;20043;-69
2022/08/28 05:46:38;;;;;;;11.57;1.45;;;17.00;99.90;;;;;;5094216;27;20073;-69
2022/08/28 05:49:06;;;;;;;7.05;1.10;;;17.00;99.90;;;;;;5093195;27;20031;-70
2022/08/28 05:51:33;;;;;;;6.35;0.90;;;17.10;99.90;;;;;;5094995;27;20323;-69
2022/08/28 05:53:58;;;;;;;11.63;1.00;;;17.00;99.90;;;;;;5094573;27;20540;-69
2022/08/28 05:56:30;;;;;;;5.82;0.98;;;17.00;99.90;;;;;;5093665;27;20118;-67
2022/08/28 05:59:00;;;;;;;8.23;1.13;;;17.00;99.90;;;;;;5109414;27;20042;-69
2022/08/28 06:01:41;;;;;;;7.20;0.90;;;17.00;99.90;;;;;;5076317;27;20527;-69
2022/08/28 06:04:16;;;;;;;8.65;1.00;;;17.00;99.90;;;;;;5077258;27;20512;-69
2022/08/28 06:06:43;;;;;;;8.40;1.17;;;17.00;99.90;;;;;;5095005;27;20039;-68
2022/08/28 06:09:18;;;;;;;6.45;0.93;;;17.00;99.90;;;;;;5092546;28;20911;-69
2022/08/28 06:11:46;;;;;;;7.28;0.90;;;17.10;99.90;;;;;;5092527;27;20138;-69
2022/08/28 06:14:15;;;;;;;4.72;0.82;;;17.30;99.90;;;;;;5090634;28;20043;-68
2022/08/28 06:16:43;;;;;;;5.82;0.80;;;17.60;99.90;;;;;;5090141;28;20143;-68
2022/08/28 06:19:10;;;;;;;6.15;0.90;;;17.90;99.90;;;;;;5089609;28;20048;-68
2022/08/28 06:21:37;;;;;;;7.47;0.80;;;18.30;99.90;;;;;;5090441;28;20036;-69
2022/08/28 06:24:03;;;;;;;6.60;0.65;;;18.30;99.90;;;;;;5092797;28;20665;-66
2022/08/28 06:26:29;;;;;;;6.43;1.05;;;18.50;99.90;;;;;;5075988;28;20529;-69
2022/08/28 06:29:02;;;;;;;5.38;0.80;;;18.80;99.90;;;;;;5092155;28;20062;-66
2022/08/28 06:31:28;;;;;;;;;;;19.00;99.90;;;;;;5090653;28;20039;-67
2022/08/28 06:33:56;;;;;;;3.85;0.75;;;18.70;99.90;;;;;;5091831;28;19996;-69
2022/08/28 06:36:23;;;;;;;6.30;0.75;;;19.20;99.90;;;;;;5073929;28;20509;-68
2022/08/28 06:38:49;;;;;;;7.60;1.00;;;19.10;99.90;;;;;;5060706;28;20035;-69
2022/08/28 06:41:15;;;;;;;8.65;0.60;;;18.80;99.90;;;;;;5091418;28;20050;-69
2022/08/28 06:43:41;;;;;;;6.45;0.88;;;18.70;99.90;;;;;;5092361;28;20568;-70
2022/08/28 06:46:08;;;;;;;13.25;1.00;;;18.50;99.90;;;;;;5075144;28;20043;-69
2022/08/28 06:48:33;;;;;;;7.22;0.60;;;18.30;99.90;;;;;;5091593;28;20262;-70
2022/08/28 06:50:59;;;;;;;5.93;1.10;;;17.90;99.90;;;;;;5091849;28;20791;-70
2022/08/28 06:53:29;;;;;;;5.70;0.73;;;17.90;99.90;;;;;;5092328;28;20039;-70
2022/08/28 06:56:07;;;;;;;7.78;0.95;;;17.90;99.90;;;;;;5092783;28;20043;-70
2022/08/28 06:58:39;;;;;;;10.50;0.80;;;18.10;99.90;;;;;;5108384;27;20354;-69
2022/08/28 07:01:21;;;;;;;8.60;1.00;;;18.70;99.90;;;;;;5092257;28;20130;-70
2022/08/28 07:03:48;;;;;;;7.88;0.90;;;19.30;99.90;;;;;;5092376;28;20067;-67
2022/08/28 07:06:15;;;;;;;6.80;0.70;;;19.50;99.90;;;;;;5075451;28;20469;-70
2022/08/28 07:08:42;;;;;;;5.78;0.93;;;19.60;99.90;;;;;;5091619;28;20074;-68
2022/08/28 07:11:19;;;;;;;6.28;0.90;;;19.80;99.90;;;;;;5092497;28;20206;-67
2022/08/28 07:13:45;;;;;;;9.40;0.90;;;19.90;99.90;;;;;;5092346;28;20039;-68
2022/08/28 07:16:13;;;;;;;7.53;0.68;;;19.70;99.90;;;;;;5092232;28;20050;-70
2022/08/28 07:18:39;;;;;;;8.80;1.17;;;19.80;99.90;;;;;;5091739;28;20056;-68
2022/08/28 07:21:05;;;;;;;7.60;0.90;;;20.10;99.90;;;;;;5093509;28;20503;-68
2022/08/28 07:23:33;;;;;;;5.63;0.90;;;20.30;99.90;;;;;;5074850;28;20242;-68
2022/08/28 07:26:02;;;;;;;7.68;0.70;;;20.70;99.90;;;;;;5093306;28;20131;-67
2022/08/28 07:28:28;;;;;;;6.82;0.95;;;20.80;99.90;;;;;;5093570;28;20040;-68
2022/08/28 07:31:08;;;;;;;4.93;0.70;;;20.60;99.90;;;;;;5075091;28;20497;-67
2022/08/28 07:33:35;;;;;;;4.80;0.90;;;20.80;99.90;;;;;;5074088;28;21173;-67
2022/08/28 07:36:02;;;;;;;5.45;1.00;;;21.10;99.90;;;;;;5091241;28;20520;-68
2022/08/28 07:38:27;;;;;;;8.70;0.98;;;21.10;99.90;;;;;;5091195;28;20048;-68
2022/08/28 07:40:54;;;;;;;8.45;1.02;;;21.70;99.90;;;;;;5091407;28;20044;-69
2022/08/28 07:46:07;;;;;;;8.35;1.08;;;21.90;99.90;;;;;;5090937;28;20058;-69
2022/08/28 07:48:34;;;;;;;4.75;0.68;;;21.70;99.90;;;;;;5073716;28;20220;-69
2022/08/28 07:51:01;;;;;;;4.22;0.68;;;21.50;99.90;;;;;;5091796;28;20589;-68
2022/08/28 07:53:26;;;;;;;8.82;0.88;;;21.40;99.90;;;;;;5091767;28;20452;-68
2022/08/28 07:55:52;;;;;;;9.98;0.90;;;21.60;99.90;;;;;;5074008;28;20050;-69
2022/08/28 07:58:19;;;;;;;4.13;0.85;;;21.90;99.90;;;;;;5091443;28;20432;-69
2022/08/28 08:00:45;;;;;;;7.32;0.80;;;22.00;99.90;;;;;;5073451;28;20047;-69
2022/08/28 08:03:12;;;;;;;6.57;1.00;;;22.30;99.90;;;;;;5091000;28;20039;-69
2022/08/28 08:05:38;;;;;;;4.10;0.65;;;22.30;99.90;;;;;;5091284;28;20048;-68
2022/08/28 08:08:04;;;;;;;4.25;0.70;;;22.30;99.90;;;;;;5091321;28;20085;-69
2022/08/28 08:10:30;;;;;;;4.53;0.50;;;22.40;99.90;;;;;;5089312;28;20138;-69
2022/08/28 08:12:55;;;;;;;5.20;0.73;;;22.70;99.90;;;;;;5091093;28;20146;-70
2022/08/28 08:15:21;;;;;;;5.35;0.70;;;22.60;99.90;;;;;;5090575;28;20401;-68
2022/08/28 08:17:47;;;;;;;7.78;1.15;;;22.10;98.80;;;;;;5090813;28;20120;-69
2022/08/28 08:20:13;;;;;;;5.43;1.00;;;22.40;99.90;;;;;;5073625;28;20191;-69
2022/08/28 08:22:38;;;;;;;5.35;0.93;;;22.60;99.90;;;;;;5107933;27;20626;-69
2022/08/28 08:25:05;;;;;;;4.60;0.88;;;22.50;99.90;;;;;;5073327;28;20125;-68
2022/08/28 08:27:32;;;;;;;5.32;0.85;;;22.90;99.30;;;;;;5090532;28;20036;-69
2022/08/28 08:29:57;;;;;;;6.10;0.93;;;23.30;97.90;;;;;;5089998;28;20328;-70
2022/08/28 08:32:23;;;;;;;7.53;0.90;;;22.60;96.60;;;;;;5107445;27;20097;-69
2022/08/28 08:34:53;;;;;;;4.75;0.60;;;22.80;96.00;;;;;;5090311;28;20778;-68
2022/08/28 08:37:18;;;;;;;5.40;0.82;;;23.30;95.60;;;;;;5090737;28;20062;-68
2022/08/28 08:39:44;;;;;;;7.80;1.00;;;22.60;95.40;;;;;;5090195;28;20040;-68
2022/08/28 08:42:24;;;;;;;7.28;0.90;;;22.90;96.60;;;;;;5090074;28;20465;-68
2022/08/28 08:44:52;;;;;;;3.63;0.65;;;22.60;94.40;;;;;;5090215;28;20047;-69
2022/08/28 08:47:23;;;;;;;6.32;0.70;;;22.60;95.50;;;;;;5090599;28;20137;-68
2022/08/28 08:50:00;;;;;;;4.07;0.70;;;22.70;93.20;;;;;;5090000;28;20154;-68
2022/08/28 08:52:29;;;;;;;7.50;1.13;;;22.20;92.10;;;;;;5090341;28;20047;-69
2022/08/28 08:55:22;;;;;;;4.47;0.60;;;23.10;95.70;;;;;;5089959;28;20274;-69
2022/08/28 08:57:55;;;;;;;5.93;0.80;;;23.80;95.60;;;;;;5090639;28;20104;-69
2022/08/28 09:00:21;;;;;;;4.05;0.75;;;24.00;93.30;;;;;;5089932;28;20327;-69
2022/08/28 09:03:13;;;;;;;4.40;0.60;;;23.70;96.30;;;;;;5073309;28;20457;-69
2022/08/28 09:05:48;;;;;;;5.15;0.90;;;24.40;92.00;;;;;;5090113;28;20905;-70
2022/08/28 09:08:45;;;;;;;5.85;1.00;;;24.00;90.10;;;;;;5089314;28;20039;-69
2022/08/28 09:11:35;;;;;;;6.95;0.95;;;24.40;89.90;;;;;;5092958;28;20150;-69
2022/08/28 09:14:36;;;;;;;3.33;0.50;;;24.30;88.60;;;;;;5076489;28;20091;-69
2022/08/28 09:17:04;;;;;;;5.45;0.70;;;24.80;85.40;;;;;;5093440;28;20448;-68
2022/08/28 09:19:31;;;;;;;5.20;1.00;;;24.70;88.10;;;;;;5093233;28;20050;-69
2022/08/28 09:21:57;;;;;;;5.82;0.77;;;25.00;88.40;;;;;;5093046;28;20039;-71
2022/08/28 09:24:32;;;;;;;3.33;0.80;;;25.40;88.50;;;;;;5076798;28;20039;-68
2022/08/28 09:27:05;;;;;;;4.43;1.00;;;25.40;87.70;;;;;;5076528;28;20372;-68
2022/08/28 09:29:30;;;;;;;;;;;25.60;85.80;;;;;;5076335;28;20035;-68
2022/08/28 09:31:57;;;;;;;5.28;0.73;;;24.80;87.10;;;;;;5093173;28;19949;-70
2022/08/28 09:34:32;;;;;;;7.22;1.20;;;24.30;90.80;;;;;;5093406;28;20546;-68
2022/08/28 09:37:00;;;;;;;8.07;1.20;;;23.50;95.10;;;;;;5093701;28;20054;-68
2022/08/28 09:39:31;;;;;;;6.40;0.90;;;22.70;93.70;;;;;;5076667;28;20118;-68
2022/08/28 09:45:12;;;;;;;7.50;1.23;;;21.70;97.40;;;;;;5092886;28;20313;-68
2022/08/28 09:47:55;;;;;;;4.85;0.68;;;21.50;98.20;;;;;;5093032;28;20922;-67
2022/08/28 09:50:23;;;;;;;6.75;0.88;;;21.20;99.90;;;;;;5093826;28;20410;-69
2022/08/28 09:52:51;;;;;;;7.38;1.25;;;21.50;99.30;;;;;;5093043;28;20039;-68
2022/08/28 09:55:24;;;;;;;5.70;1.10;;;21.80;98.60;;;;;;5077426;27;20046;-69
2022/08/28 09:57:51;;;;;;;6.85;0.98;;;21.40;98.40;;;;;;5079353;27;20059;-69
2022/08/28 10:00:17;;;;;;;5.10;0.80;;;21.50;99.70;;;;;;5096886;27;20043;-69
2022/08/28 10:02:57;;;;;;;4.90;0.88;;;22.10;98.10;;;;;;5096805;27;20316;-69
2022/08/28 10:05:52;;;;;;;4.43;0.73;;;22.90;96.70;;;;;;5096921;27;20047;-68
2022/08/28 10:08:36;;;;;;;5.93;1.00;;;23.30;93.30;;;;;;5096745;27;20335;-68
2022/08/28 10:11:30;;;;;;;3.92;0.90;;;23.60;91.90;;;;;;5079635;27;20047;-69
2022/08/28 10:14:28;;;;;;;5.15;0.90;;;23.30;91.50;;;;;;5078651;27;20065;-68
2022/08/28 10:17:05;;;;;;;4.90;0.93;;;22.40;92.00;;;;;;5115459;27;20050;-69
2022/08/28 10:19:52;;;;;;;4.28;0.80;;;22.30;92.40;;;;;;5079863;27;20054;-69
2022/08/28 10:22:42;;;;;;;4.95;1.02;;;23.00;94.30;;;;;;5096277;27;20577;-68
2022/08/28 10:25:31;;;;;;;5.22;0.82;;;22.70;90.30;;;;;;5096879;27;20135;-71
2022/08/28 10:28:02;;;;;;;6.82;0.98;;;22.60;90.50;;;;;;5095938;27;20479;-70
2022/08/28 10:30:33;;;;;;;6.35;0.90;;;22.90;89.00;;;;;;5079419;27;20540;-69
2022/08/28 10:33:29;;;;;;;7.40;1.00;;;22.80;90.00;;;;;;5079971;27;20531;-68
2022/08/28 10:36:04;;;;;;;6.88;0.80;;;22.10;91.30;;;;;;5096294;27;20520;-71
2022/08/28 10:39:17;;;;;;;8.43;1.05;;;22.10;94.00;;;;;;5079159;27;20053;-70
2022/08/28 10:41:56;;;;;;;5.18;0.93;;;23.10;86.70;;;;;;5018795;27;20086;-70
2022/08/28 10:45:10;;;;;;;7.18;1.00;;;22.80;87.50;;;;;;5096530;27;20051;-70
2022/08/28 10:47:40;;;;;;;5.75;0.85;;;22.90;91.10;;;;;;5091242;27;20551;-70
2022/08/28 10:50:17;;;;;;;4.93;0.80;;;22.70;90.30;;;;;;5112955;27;20043;-70
2022/08/28 10:52:54;;;;;;;5.15;0.90;;;22.30;91.30;;;;;;5095565;27;20126;-69
2022/08/28 10:55:34;;;;;;;6.35;0.90;;;21.70;93.10;;;;;;5096053;27;20097;-69
2022/08/28 10:58:04;;;;;;;6.28;1.00;;;21.60;93.10;;;;;;5078951;27;20312;-68
2022/08/28 11:00:31;;;;;;;4.55;1.02;;;20.80;95.80;;;;;;5078451;27;20126;-69
2022/08/28 11:03:01;;;;;;;5.28;1.15;;;20.80;96.10;;;;;;5095561;27;20046;-69
2022/08/28 11:05:40;;;;;;;4.75;0.80;;;21.50;95.40;;;;;;5094624;27;20043;-69
2022/08/28 11:08:11;;;;;;;5.22;1.10;;;22.50;92.70;;;;;;5077926;27;20050;-69
2022/08/28 11:10:43;;;;;;;7.03;0.98;;;22.40;94.50;;;;;;5095141;27;20119;-70
2022/08/28 11:13:10;;;;;;;4.82;1.08;;;22.70;94.60;;;;;;5095232;27;20039;-69
2022/08/28 11:15:50;;;;;;;4.10;1.27;;;23.10;90.90;;;;;;5098221;27;20103;-69
2022/08/28 11:18:16;;;;;;;5.63;1.00;;;22.70;89.30;;;;;;5099072;27;20043;-68
2022/08/28 11:21:04;;;;;;;7.95;1.40;;;23.00;90.50;;;;;;5097375;27;20039;-69
2022/08/28 11:23:41;;;;;;;4.80;1.10;;;22.90;79.60;;;;;;5097291;27;20050;-69
2022/08/28 11:26:11;;;;;;;4.78;1.10;;;23.40;82.80;;;;;;5067528;27;20425;-67
2022/08/28 11:28:45;;;;;;;8.88;1.58;;;22.60;82.50;;;;;;5081450;27;20119;-69
2022/08/28 11:31:13;;;;;;;7.85;1.10;;;22.60;86.20;;;;;;5098571;27;20212;-67
2022/08/28 11:33:49;;;;;;;5.15;1.00;;;22.00;90.60;;;;;;5100216;27;20107;-68
2022/08/28 11:36:18;;;;;;;6.78;1.17;;;21.20;96.00;;;;;;5099067;27;20043;-68
2022/08/28 11:38:44;;;;;;;10.60;1.50;;;20.80;98.70;;;;;;5082550;27;20198;-68
2022/08/28 11:41:27;;;;;;;5.07;1.25;;;20.60;99.90;;;;;;5098454;27;20507;-69
2022/08/28 11:44:08;;;;;;;9.65;1.10;;;21.20;99.90;;;;;;5083451;27;20151;-68
2022/08/28 11:46:49;;;;;;;5.68;1.10;;;21.90;99.90;;;;;;5099303;27;20065;-68
2022/08/28 11:49:26;;;;;;;9.00;1.42;;;22.30;97.30;;;;;;5064625;27;20334;-68
2022/08/28 11:52:50;;;;;;;5.13;1.13;;;22.80;94.60;;;;;;5096624;27;20845;-70
2022/08/28 11:55:20;;;;;;;;;;;23.20;95.10;;;;;;5016576;28;20048;-68
2022/08/28 11:58:04;;;;;;;8.90;1.10;;;23.50;97.40;;;;;;5016741;28;19920;-67
2022/08/28 12:00:59;;;;;;;4.78;0.90;;;23.10;89.00;;;;;;5078818;27;20174;-67
2022/08/28 12:03:35;;;;;;;5.00;0.90;;;22.40;90.50;;;;;;5081319;27;20046;-68
2022/08/28 12:06:02;;;;;;;2.92;0.90;;;22.80;88.60;;;;;;5080308;27;20043;-68
2022/08/28 12:08:53;;;;;;;4.85;0.90;;;22.90;85.00;;;;;;5079654;27;20309;-69
2022/08/28 12:11:38;;;;;;;3.65;0.95;;;22.20;84.70;;;;;;5080215;27;20604;-69
2022/08/28 12:14:30;;;;;;;7.70;0.88;;;22.20;88.30;;;;;;5080935;27;20570;-68
2022/08/28 12:17:02;;;;;;;6.07;1.17;;;22.70;87.40;;;;;;5097262;27;20047;-68
2022/08/28 12:19:46;;;;;;;4.20;1.02;;;22.80;85.80;;;;;;5080847;27;20409;-68
2022/08/28 12:22:15;;;;;;;6.82;1.02;;;22.60;90.70;;;;;;5114755;27;20039;-67
2022/08/28 12:24:52;;;;;;;6.38;1.00;;;22.70;91.80;;;;;;5081345;27;20039;-68
2022/08/28 12:27:18;;;;;;;3.15;0.60;;;22.60;91.70;;;;;;5096727;27;20035;-69
2022/08/28 12:29:49;;;;;;;5.15;0.98;;;22.70;91.40;;;;;;5081455;27;20270;-68
2022/08/28 12:32:33;;;;;;;3.35;0.70;;;22.30;91.30;;;;;;5061863;27;20424;-70
2022/08/28 12:34:59;;;;;;;3.55;0.60;;;22.00;91.50;;;;;;5094782;27;20114;-69
2022/08/28 12:37:31;;;;;;;3.35;0.55;;;22.90;93.40;;;;;;5080476;27;20035;-69
2022/08/28 12:40:27;;;;;;;4.53;0.60;;;22.20;88.00;;;;;;5096342;27;20035;-70
2022/08/28 12:42:55;;;;;;;5.93;0.50;;;22.90;86.60;;;;;;5078971;28;20043;-67
2022/08/28 12:45:47;;;;;;;5.53;0.75;;;23.50;87.40;;;;;;5097530;28;20432;-69
2022/08/28 12:48:24;;;;;;;4.57;0.60;;;23.60;84.40;;;;;;5096765;28;20523;-68
2022/08/28 12:51:13;;;;;;;3.65;0.60;;;23.50;84.20;;;;;;5097079;27;20430;-67
2022/08/28 12:53:49;;;;;;;5.38;0.70;;;23.40;87.40;;;;;;5081359;28;20039;-67
2022/08/28 12:56:18;;;;;;;5.80;0.60;;;22.50;88.20;;;;;;5097818;28;20400;-68
2022/08/28 12:58:45;;;;;;;6.57;0.70;;;22.10;89.90;;;;;;5081279;28;20059;-67
2022/08/28 13:01:13;;;;;;;6.47;0.73;;;22.00;90.60;;;;;;5097119;28;20039;-68
2022/08/28 13:04:03;;;;;;;4.78;0.60;;;22.40;93.60;;;;;;5095916;28;20273;-69
2022/08/28 13:06:30;;;;;;;6.45;0.70;;;22.20;96.00;;;;;;5078340;28;20088;-69
2022/08/28 13:09:06;;;;;;;4.50;0.80;;;22.20;97.50;;;;;;5078994;28;20051;-68
2022/08/28 13:11:37;;;;;;;4.97;0.50;;;22.20;98.40;;;;;;5096754;28;20524;-68
2022/08/28 13:14:04;;;;;;;5.20;0.73;;;22.60;96.60;;;;;;5081235;28;20040;-67
2022/08/28 13:16:42;;;;;;;6.55;0.70;;;22.90;95.40;;;;;;5097611;28;20061;-67